createdAt,value
2019-03-05T00:01:17.065Z,5.20
2019-03-05T00:03:46.656Z,9.10
2019-03-05T00:06:16.168Z,6.47
2019-03-05T00:08:45.716Z,8.97
2019-03-05T00:11:15.355Z,5.13
2019-03-05T00:13:44.819Z,5.33
2019-03-05T00:16:14.403Z,4.67
2019-03-05T00:18:43.884Z,6.67
2019-03-05T00:21:13.474Z,7.83
2019-03-05T00:23:50.728Z,5.30
2019-03-05T00:26:26.748Z,6.63
2019-03-05T00:29:24.007Z,8.53
2019-03-05T00:31:53.585Z,6.50
2019-03-05T00:35:04.005Z,7.10
2019-03-05T00:37:52.126Z,7.40
2019-03-05T00:40:43.256Z,6.07
2019-03-05T00:44:04.135Z,7.30
2019-03-05T00:47:19.365Z,4.80
2019-03-05T00:50:22.439Z,6.10
2019-03-05T00:53:04.609Z,7.00
2019-03-05T00:56:08.155Z,7.00
2019-03-05T00:59:23.354Z,5.23
2019-03-05T01:02:20.413Z,4.43
2019-03-05T01:05:31.075Z,3.60
2019-03-05T01:08:00.793Z,8.20
2019-03-05T01:10:34.050Z,5.37
2019-03-05T01:13:03.633Z,3.43
2019-03-05T01:15:33.426Z,5.07
2019-03-05T01:18:03.031Z,5.57
2019-03-05T01:20:32.647Z,4.00
2019-03-05T01:23:05.248Z,7.17
2019-03-05T01:25:35.154Z,3.93
2019-03-05T01:28:04.798Z,3.17
2019-03-05T01:30:54.594Z,4.87
2019-03-05T01:33:25.156Z,6.30
2019-03-05T01:35:58.883Z,3.50
2019-03-05T01:38:30.103Z,4.20
2019-03-05T01:41:04.606Z,4.83
2019-03-05T01:43:34.141Z,5.63
2019-03-05T01:46:03.714Z,5.77
2019-03-05T01:48:33.515Z,4.43
2019-03-05T01:51:03.504Z,4.53
2019-03-05T01:53:33.269Z,4.30
2019-03-05T01:56:03.088Z,5.03
2019-03-05T01:58:33.728Z,6.50
2019-03-05T02:01:03.677Z,3.80
2019-03-05T02:03:33.447Z,5.30
2019-03-05T02:06:03.059Z,5.13
2019-03-05T02:08:32.706Z,6.30
2019-03-05T02:11:02.193Z,3.70
2019-03-05T02:13:31.807Z,4.77
2019-03-05T02:16:01.325Z,3.60
2019-03-05T02:18:30.936Z,4.53
2019-03-05T02:21:00.528Z,4.10
2019-03-05T02:23:34.778Z,5.70
2019-03-05T02:26:35.934Z,4.27
2019-03-05T02:29:21.233Z,4.50
2019-03-05T02:32:45.194Z,5.70
2019-03-05T02:35:54.548Z,5.50
2019-03-05T02:39:19.764Z,5.37
2019-03-05T02:42:04.541Z,3.83
2019-03-05T02:45:05.088Z,4.80
2019-03-05T02:47:48.891Z,4.80
2019-03-05T02:50:48.438Z,3.70
2019-03-05T02:53:29.795Z,5.40
2019-03-05T02:56:18.018Z,5.40
2019-03-05T02:58:45.779Z,3.77
2019-03-05T03:01:30.086Z,4.10
2019-03-05T03:04:02.853Z,2.97
2019-03-05T03:06:34.541Z,3.63
2019-03-05T03:09:50.754Z,4.43
2019-03-05T03:12:20.214Z,2.40
2019-03-05T03:14:49.802Z,3.17
2019-03-05T03:17:19.278Z,2.53
2019-03-05T03:19:48.740Z,3.40
2019-03-05T03:22:18.220Z,2.80
2019-03-05T03:24:47.759Z,2.50
2019-03-05T03:27:17.353Z,1.90
2019-03-05T03:29:46.852Z,2.53
2019-03-05T03:32:16.396Z,2.10
2019-03-05T03:34:45.891Z,2.37
2019-03-05T03:37:15.328Z,2.17
2019-03-05T03:39:44.861Z,1.83
2019-03-05T03:42:14.384Z,2.30
2019-03-05T03:44:43.827Z,2.63
2019-03-05T03:47:13.300Z,2.23
2019-03-05T03:49:42.974Z,2.70
2019-03-05T03:52:12.562Z,2.43
2019-03-05T03:54:42.219Z,2.70
2019-03-05T03:57:11.858Z,2.70
2019-03-05T03:59:41.242Z,2.30
2019-03-05T04:02:10.817Z,3.17
2019-03-05T04:04:40.302Z,2.97
2019-03-05T04:07:09.767Z,2.17
2019-03-05T04:09:39.202Z,1.97
2019-03-05T04:12:08.887Z,3.90
2019-03-05T04:14:38.393Z,3.00
2019-03-05T04:17:07.939Z,2.80
2019-03-05T04:19:37.718Z,2.83
2019-03-05T04:22:07.666Z,2.33
2019-03-05T04:24:37.320Z,3.93
2019-03-05T04:27:06.860Z,3.90
2019-03-05T04:29:36.578Z,3.63
2019-03-05T04:32:06.199Z,2.60
2019-03-05T04:34:35.709Z,2.57
2019-03-05T04:37:05.288Z,4.10
2019-03-05T04:39:34.934Z,4.70
2019-03-05T04:42:04.482Z,4.83
2019-03-05T04:44:42.437Z,4.10
2019-03-05T04:47:11.946Z,3.80
2019-03-05T04:49:46.587Z,4.20
2019-03-05T04:52:18.749Z,4.20
2019-03-05T04:54:48.368Z,3.97
2019-03-05T04:57:17.791Z,3.80
2019-03-05T04:59:47.262Z,3.37
2019-03-05T05:02:16.771Z,2.87
2019-03-05T05:04:46.271Z,4.40
2019-03-05T05:07:15.839Z,3.60
2019-03-05T05:09:45.353Z,4.17
2019-03-05T05:12:14.828Z,3.27
2019-03-05T05:14:44.311Z,3.87
2019-03-05T05:17:13.997Z,4.00
2019-03-05T05:19:43.695Z,4.67
2019-03-05T05:22:13.693Z,5.93
2019-03-05T05:24:43.297Z,3.90
2019-03-05T05:27:12.758Z,5.60
2019-03-05T05:29:42.257Z,5.13
2019-03-05T05:32:11.856Z,4.30
2019-03-05T05:34:41.435Z,4.33
2019-03-05T05:37:10.973Z,4.53
2019-03-05T05:40:15.957Z,5.33
2019-03-05T05:42:45.550Z,3.90
2019-03-05T05:45:19.210Z,5.30
2019-03-05T05:47:48.259Z,5.30
2019-03-05T05:50:17.947Z,5.30
2019-03-05T05:52:47.526Z,4.57
2019-03-05T05:55:17.031Z,4.50
2019-03-05T05:57:46.597Z,5.27
2019-03-05T06:00:17.143Z,3.63
2019-03-05T06:02:46.609Z,4.40
2019-03-05T06:05:16.045Z,4.10
2019-03-05T06:07:45.525Z,4.50
2019-03-05T06:10:15.200Z,4.27
2019-03-05T06:12:44.867Z,4.20
2019-03-05T06:15:14.817Z,3.30
2019-03-05T06:17:44.409Z,4.37
2019-03-05T06:20:14.028Z,3.17
2019-03-05T06:22:43.598Z,5.07
2019-03-05T06:25:13.239Z,4.77
2019-03-05T06:27:42.993Z,5.67
2019-03-05T06:30:13.937Z,5.00
2019-03-05T06:32:43.553Z,4.50
2019-03-05T06:35:14.411Z,6.63
2019-03-05T06:37:44.890Z,5.17
2019-03-05T06:40:16.102Z,5.60
2019-03-05T06:42:45.565Z,4.97
2019-03-05T06:45:16.656Z,6.17
2019-03-05T06:47:46.331Z,3.03
2019-03-05T06:50:16.006Z,7.33
2019-03-05T06:52:45.620Z,4.77
2019-03-05T06:55:17.377Z,5.60
2019-03-05T06:57:47.037Z,5.60
2019-03-05T07:00:22.295Z,6.77
2019-03-05T07:02:51.869Z,6.03
2019-03-05T07:05:56.854Z,6.07
2019-03-05T07:08:26.459Z,8.00
2019-03-05T07:11:40.665Z,6.57
2019-03-05T07:14:21.980Z,6.80
2019-03-05T07:17:13.324Z,6.47
2019-03-05T07:20:23.801Z,6.33
2019-03-05T07:23:43.067Z,6.70
2019-03-05T07:26:12.301Z,7.07
2019-03-05T07:28:42.136Z,7.33
2019-03-05T07:31:11.598Z,6.43
2019-03-05T07:33:41.148Z,6.60
2019-03-05T07:36:10.703Z,6.30
2019-03-05T07:38:40.408Z,7.70
2019-03-05T07:41:11.700Z,7.40
2019-03-05T07:43:41.144Z,5.80
2019-03-05T07:46:10.589Z,6.37
2019-03-05T07:48:40.215Z,5.00
2019-03-05T07:51:09.724Z,7.00
2019-03-05T07:53:39.470Z,6.40
2019-03-05T07:56:08.927Z,6.83
2019-03-05T07:58:39.499Z,7.33
2019-03-05T08:01:09.007Z,6.97
2019-03-05T08:03:38.652Z,4.67
2019-03-05T08:06:08.118Z,7.00
2019-03-05T08:09:13.541Z,6.00
2019-03-05T08:11:43.000Z,4.90
2019-03-05T08:14:46.429Z,4.63
2019-03-05T08:17:15.889Z,5.00
2019-03-05T08:19:45.477Z,6.27
2019-03-05T08:22:15.116Z,4.00
2019-03-05T08:24:44.595Z,3.73
2019-03-05T08:27:14.073Z,8.37
2019-03-05T08:29:43.596Z,5.10
2019-03-05T08:32:13.154Z,4.80
2019-03-05T08:34:42.622Z,5.30
2019-03-05T08:37:13.518Z,7.20
2019-03-05T08:39:43.319Z,5.60
2019-03-05T08:42:13.184Z,11.23
2019-03-05T08:44:50.496Z,5.23
2019-03-05T08:47:13.898Z,5.47
2019-03-05T08:49:43.528Z,4.30
2019-03-05T08:52:12.968Z,4.40
2019-03-05T08:54:42.433Z,5.77
2019-03-05T08:57:11.938Z,5.33
2019-03-05T08:59:41.516Z,5.13
2019-03-05T09:02:10.947Z,5.43
2019-03-05T09:04:40.537Z,5.43
2019-03-05T09:07:09.999Z,5.00
2019-03-05T09:09:40.690Z,4.67
2019-03-05T09:12:10.365Z,4.60
2019-03-05T09:14:39.984Z,4.57
2019-03-05T09:17:09.472Z,4.50
2019-03-05T09:19:39.963Z,5.43
2019-03-05T09:22:09.527Z,6.07
2019-03-05T09:24:39.129Z,5.80
2019-03-05T09:27:08.745Z,4.10
2019-03-05T09:29:38.494Z,4.03
2019-03-05T09:32:08.009Z,4.13
2019-03-05T09:34:37.444Z,4.67
2019-03-05T09:37:07.034Z,4.30
2019-03-05T09:39:36.595Z,5.20
2019-03-05T09:42:06.290Z,4.37
2019-03-05T09:44:36.139Z,5.40
2019-03-05T09:47:05.797Z,5.07
2019-03-05T09:49:35.455Z,3.90
2019-03-05T09:52:04.996Z,3.60
2019-03-05T09:54:34.624Z,6.10
2019-03-05T09:57:04.194Z,3.37
2019-03-05T09:59:33.818Z,5.67
2019-03-05T10:02:03.304Z,5.60
2019-03-05T10:04:32.836Z,6.97
2019-03-05T10:07:02.380Z,6.00
2019-03-05T10:09:31.807Z,6.30
2019-03-05T10:12:01.258Z,7.77
2019-03-05T10:14:30.694Z,4.17
2019-03-05T10:17:00.303Z,7.33
2019-03-05T10:19:29.861Z,9.00
2019-03-05T10:21:59.398Z,6.47
2019-03-05T10:24:28.998Z,7.37
2019-03-05T10:26:58.484Z,6.27
2019-03-05T10:29:28.030Z,5.93
2019-03-05T10:31:57.683Z,4.87
2019-03-05T10:34:27.392Z,6.60
2019-03-05T10:36:57.060Z,6.70
2019-03-05T10:39:30.773Z,6.50
2019-03-05T10:42:01.342Z,6.40
2019-03-05T10:44:30.815Z,5.37
2019-03-05T10:47:00.345Z,6.13
2019-03-05T10:49:29.800Z,5.53
2019-03-05T10:51:59.252Z,4.87
2019-03-05T10:54:28.860Z,6.20
2019-03-05T10:56:58.414Z,5.30
2019-03-05T10:59:27.975Z,4.43
2019-03-05T11:01:57.641Z,5.80
2019-03-05T11:04:27.326Z,5.90
2019-03-05T11:06:56.918Z,4.87
2019-03-05T11:09:26.690Z,4.63
2019-03-05T11:11:56.595Z,4.13
2019-03-05T11:14:26.465Z,5.90
2019-03-05T11:16:59.337Z,5.57
2019-03-05T11:19:29.644Z,5.30
2019-03-05T11:21:59.273Z,3.87
2019-03-05T11:24:29.684Z,4.63
2019-03-05T11:27:18.478Z,4.33
2019-03-05T11:29:48.175Z,3.97
2019-03-05T11:32:18.907Z,4.43
2019-03-05T11:34:48.633Z,3.80
2019-03-05T11:37:18.170Z,3.97
2019-03-05T11:39:47.830Z,3.50
2019-03-05T11:42:17.468Z,4.13
2019-03-05T11:44:58.855Z,4.03
2019-03-05T11:47:18.717Z,3.80
2019-03-05T11:49:48.512Z,4.27
2019-03-05T11:52:18.025Z,3.63
2019-03-05T11:54:55.662Z,3.50
2019-03-05T11:57:27.883Z,4.33
2019-03-05T11:59:58.072Z,3.67
2019-03-05T12:02:31.196Z,5.33
2019-03-05T12:05:03.213Z,4.40
2019-03-05T12:07:33.740Z,4.30
2019-03-05T12:10:03.769Z,5.20
2019-03-05T12:12:39.595Z,4.23
2019-03-05T12:15:11.977Z,4.30
2019-03-05T12:17:41.861Z,4.93
2019-03-05T12:20:12.412Z,4.10
2019-03-05T12:22:41.909Z,3.70
2019-03-05T12:25:13.845Z,4.70
2019-03-05T12:27:43.431Z,3.10
2019-03-05T12:30:16.790Z,4.77
2019-03-05T12:32:46.268Z,4.13
2019-03-05T12:35:16.468Z,5.27
2019-03-05T12:37:46.268Z,5.60
2019-03-05T12:40:16.845Z,4.30
2019-03-05T12:42:47.433Z,4.40
2019-03-05T12:45:17.268Z,3.00
2019-03-05T12:47:47.275Z,3.83
2019-03-05T12:50:18.101Z,5.13
2019-03-05T12:52:51.081Z,5.30
2019-03-05T12:55:20.981Z,5.43
2019-03-05T12:57:50.984Z,2.90
2019-03-05T13:00:45.230Z,4.70
2019-03-05T13:03:15.868Z,4.47
2019-03-05T13:05:51.521Z,4.60
2019-03-05T13:08:22.949Z,5.53
2019-03-05T13:10:52.556Z,4.53
2019-03-05T13:13:24.326Z,4.30
2019-03-05T13:15:56.466Z,5.03
2019-03-05T13:18:47.400Z,7.80
2019-03-05T13:21:18.554Z,5.77
2019-03-05T13:23:48.114Z,3.80
2019-03-05T13:26:17.676Z,7.67
2019-03-05T13:28:47.137Z,6.20
2019-03-05T13:31:16.704Z,7.33
2019-03-05T13:33:46.134Z,4.50
2019-03-05T13:36:16.761Z,4.43
2019-03-05T13:38:46.497Z,5.30
2019-03-05T13:41:16.863Z,4.77
2019-03-05T13:43:46.429Z,6.50
2019-03-05T13:46:16.315Z,4.90
2019-03-05T13:49:18.289Z,4.03
2019-03-05T13:52:23.215Z,3.83
2019-03-05T13:55:33.309Z,5.00
2019-03-05T13:58:42.361Z,4.07
2019-03-05T14:01:12.229Z,3.77
2019-03-05T14:04:00.790Z,4.60
2019-03-05T14:06:58.269Z,3.80
2019-03-05T14:09:26.065Z,3.93
2019-03-05T14:11:56.842Z,4.40
2019-03-05T14:14:30.470Z,5.50
2019-03-05T14:17:21.243Z,5.37
2019-03-05T14:19:51.016Z,1.77
2019-03-05T14:22:20.711Z,3.90
2019-03-05T14:24:58.273Z,4.80
2019-03-05T14:27:21.416Z,6.93
2019-03-05T14:29:51.015Z,4.73
2019-03-05T14:32:20.723Z,3.50
2019-03-05T14:35:03.657Z,3.40
2019-03-05T14:37:33.746Z,3.80
2019-03-05T14:40:22.905Z,3.93
2019-03-05T14:42:54.945Z,4.13
2019-03-05T14:45:26.690Z,3.13
2019-03-05T14:47:58.082Z,2.93
2019-03-05T14:50:30.138Z,2.93
2019-03-05T14:52:59.774Z,4.77
2019-03-05T14:55:30.338Z,4.10
2019-03-05T14:57:59.790Z,3.90
2019-03-05T15:00:29.323Z,3.57
2019-03-05T15:02:59.224Z,2.30
2019-03-05T15:05:28.948Z,4.50
2019-03-05T15:07:58.484Z,4.20
2019-03-05T15:10:28.314Z,3.60
2019-03-05T15:12:58.545Z,3.37
2019-03-05T15:15:50.093Z,3.87
2019-03-05T15:18:19.691Z,3.43
2019-03-05T15:20:49.420Z,2.80
2019-03-05T15:23:18.968Z,5.10
2019-03-05T15:25:49.177Z,3.70
2019-03-05T15:28:18.790Z,3.60
2019-03-05T15:30:48.618Z,3.43
2019-03-05T15:33:18.482Z,5.23
2019-03-05T15:35:57.519Z,6.00
2019-03-05T15:38:27.431Z,15.10
2019-03-05T15:41:00.715Z,4.17
2019-03-05T15:43:30.502Z,2.73
2019-03-05T15:46:00.305Z,3.77
2019-03-05T15:48:29.982Z,3.17
2019-03-05T15:50:59.837Z,3.93
2019-03-05T15:53:29.919Z,3.43
2019-03-05T15:55:59.887Z,3.50
2019-03-05T15:58:29.566Z,3.00
2019-03-05T16:00:59.816Z,3.07
2019-03-05T16:03:29.843Z,3.10
2019-03-05T16:05:59.804Z,3.10
2019-03-05T16:08:32.259Z,3.30
2019-03-05T16:11:01.131Z,3.80
2019-03-05T16:13:32.672Z,3.47
2019-03-05T16:16:02.831Z,4.40
2019-03-05T16:18:32.576Z,3.17
2019-03-05T16:21:06.040Z,2.43
2019-03-05T16:23:34.258Z,3.00
2019-03-05T16:26:04.050Z,3.73
2019-03-05T16:28:33.677Z,3.80
2019-03-05T16:31:21.680Z,5.30
2019-03-05T16:34:02.430Z,3.90
2019-03-05T16:36:42.633Z,3.53
2019-03-05T16:39:40.523Z,5.10
2019-03-05T16:42:41.887Z,3.50
2019-03-05T16:45:30.902Z,3.93
2019-03-05T16:48:11.017Z,4.40
2019-03-05T16:50:53.804Z,3.27
2019-03-05T16:53:41.474Z,4.80
2019-03-05T16:56:21.640Z,4.13
2019-03-05T16:59:10.105Z,5.20
2019-03-05T17:01:58.860Z,3.00
2019-03-05T17:04:49.980Z,4.63
2019-03-05T17:07:33.941Z,6.60
2019-03-05T17:10:31.600Z,4.93
2019-03-05T17:13:02.037Z,4.70
2019-03-05T17:15:32.109Z,5.60
2019-03-05T17:18:02.098Z,3.60
2019-03-05T17:20:32.819Z,5.10
2019-03-05T17:23:02.674Z,5.37
2019-03-05T17:25:32.619Z,6.40
2019-03-05T17:28:03.677Z,4.33
2019-03-05T17:30:33.535Z,5.07
2019-03-05T17:33:03.594Z,5.03
2019-03-05T17:35:33.809Z,4.93
2019-03-05T17:38:03.654Z,5.00
2019-03-05T17:40:34.967Z,5.20
2019-03-05T17:43:05.111Z,5.00
2019-03-05T17:45:35.304Z,5.00
2019-03-05T17:48:05.446Z,6.10
2019-03-05T17:50:35.324Z,5.10
2019-03-05T17:53:05.305Z,5.23
2019-03-05T17:55:35.330Z,5.20
2019-03-05T17:58:05.357Z,5.57
2019-03-05T18:00:36.643Z,5.93
2019-03-05T18:03:06.629Z,7.40
2019-03-05T18:05:37.005Z,5.40
2019-03-05T18:08:07.514Z,6.07
2019-03-05T18:10:37.481Z,6.73
2019-03-05T18:13:07.593Z,6.20
2019-03-05T18:15:37.649Z,6.73
2019-03-05T18:18:07.678Z,6.40
2019-03-05T18:20:37.731Z,6.83
2019-03-05T18:23:07.826Z,6.50
2019-03-05T18:25:37.954Z,5.70
2019-03-05T18:28:08.032Z,6.70
2019-03-05T18:30:38.218Z,5.87
2019-03-05T18:33:11.161Z,6.43
2019-03-05T18:35:41.371Z,6.27
2019-03-05T18:38:11.494Z,6.13
2019-03-05T18:40:41.599Z,6.67
2019-03-05T18:43:11.769Z,6.77
2019-03-05T18:45:41.863Z,5.30
2019-03-05T18:48:11.943Z,6.37
2019-03-05T18:50:41.954Z,8.13
2019-03-05T18:53:11.863Z,8.00
2019-03-05T18:55:43.352Z,7.60
2019-03-05T18:58:13.675Z,8.17
2019-03-05T19:00:43.871Z,6.63
2019-03-05T19:03:14.069Z,7.70
2019-03-05T19:05:44.154Z,6.70
2019-03-05T19:08:14.284Z,8.30
2019-03-05T19:10:44.322Z,7.20
2019-03-05T19:13:14.390Z,7.20
2019-03-05T19:15:44.590Z,8.13
2019-03-05T19:18:14.929Z,6.53
2019-03-05T19:20:45.011Z,7.40
2019-03-05T19:23:15.095Z,6.50
2019-03-05T19:25:45.277Z,6.33
2019-03-05T19:28:15.406Z,7.50
2019-03-05T19:30:45.495Z,8.00
2019-03-05T19:33:15.597Z,7.90
2019-03-05T19:35:45.735Z,7.30
2019-03-05T19:38:16.036Z,8.73
2019-03-05T19:40:46.538Z,7.10
2019-03-05T19:43:16.767Z,7.47
2019-03-05T19:45:46.903Z,7.27
2019-03-05T19:48:18.283Z,8.13
2019-03-05T19:50:48.335Z,7.57
2019-03-05T19:53:21.869Z,8.60
2019-03-05T19:55:52.061Z,7.00
2019-03-05T19:58:22.278Z,8.93
2019-03-05T20:01:08.849Z,8.60
2019-03-05T20:03:39.013Z,8.30
2019-03-05T20:06:09.316Z,6.97
2019-03-05T20:08:40.476Z,6.93
2019-03-05T20:11:11.260Z,7.40
2019-03-05T20:13:41.799Z,8.13
2019-03-05T20:16:13.700Z,6.40
2019-03-05T20:18:44.145Z,7.90
2019-03-05T20:21:14.217Z,6.83
2019-03-05T20:23:44.536Z,6.10
2019-03-05T20:26:14.513Z,6.63
2019-03-05T20:28:44.657Z,7.87
2019-03-05T20:31:16.494Z,7.20
2019-03-05T20:33:48.720Z,6.73
2019-03-05T20:36:19.893Z,5.77
2019-03-05T20:38:50.514Z,6.80
2019-03-05T20:41:22.807Z,5.37
2019-03-05T20:43:53.029Z,5.43
2019-03-05T20:46:27.583Z,7.93
2019-03-05T20:48:57.619Z,5.77
2019-03-05T20:51:27.935Z,7.50
2019-03-05T20:53:58.403Z,5.80
2019-03-05T20:56:32.237Z,7.13
2019-03-05T20:59:02.942Z,6.63
2019-03-05T21:01:33.091Z,5.40
2019-03-05T21:04:03.264Z,6.57
2019-03-05T21:06:33.372Z,5.67
2019-03-05T21:09:03.813Z,6.07
2019-03-05T21:11:34.424Z,5.30
2019-03-05T21:14:05.773Z,5.73
2019-03-05T21:16:35.965Z,5.20
2019-03-05T21:19:06.051Z,6.60
2019-03-05T21:21:36.208Z,5.90
2019-03-05T21:24:06.173Z,5.70
2019-03-05T21:26:36.190Z,5.13
2019-03-05T21:29:06.378Z,5.30
2019-03-05T21:31:36.372Z,6.30
2019-03-05T21:34:06.451Z,6.70
2019-03-05T21:36:36.487Z,6.00
2019-03-05T21:39:12.450Z,6.60
2019-03-05T21:41:42.473Z,7.10
2019-03-05T21:44:12.348Z,6.27
2019-03-05T21:46:42.260Z,6.60
2019-03-05T21:49:12.490Z,6.53
2019-03-05T21:51:42.454Z,6.73
2019-03-05T21:54:12.741Z,6.63
2019-03-05T21:56:42.532Z,5.53
2019-03-05T21:59:12.410Z,6.83
2019-03-05T22:01:42.125Z,5.43
2019-03-05T22:04:11.971Z,7.30
2019-03-05T22:06:41.640Z,5.77
2019-03-05T22:09:11.195Z,6.57
2019-03-05T22:11:40.835Z,7.10
2019-03-05T22:14:10.723Z,6.27
2019-03-05T22:16:40.331Z,7.23
2019-03-05T22:19:09.790Z,6.20
2019-03-05T22:21:39.445Z,6.67
2019-03-05T22:24:09.372Z,5.93
2019-03-05T22:26:39.211Z,5.70
2019-03-05T22:29:08.731Z,7.27
2019-03-05T22:31:38.441Z,5.60
2019-03-05T22:34:08.056Z,5.80
2019-03-05T22:36:37.609Z,5.40
2019-03-05T22:39:08.363Z,5.73
2019-03-05T22:41:38.446Z,6.30
2019-03-05T22:44:07.921Z,5.03
2019-03-05T22:46:37.627Z,6.00
2019-03-05T22:49:07.045Z,5.67
2019-03-05T22:51:36.668Z,6.30
2019-03-05T22:54:06.328Z,5.20
2019-03-05T22:56:36.863Z,5.73
2019-03-05T22:59:07.128Z,5.80
2019-03-05T23:01:39.332Z,7.17
2019-03-05T23:04:10.290Z,5.47
2019-03-05T23:06:40.069Z,4.20
2019-03-05T23:09:19.497Z,5.40
2019-03-05T23:11:49.114Z,5.27
2019-03-05T23:14:18.765Z,4.83
2019-03-05T23:16:48.775Z,4.43
2019-03-05T23:19:18.642Z,4.43
2019-03-05T23:21:48.436Z,5.13
2019-03-05T23:24:18.154Z,5.17
2019-03-05T23:26:49.797Z,4.70
2019-03-05T23:29:21.054Z,4.47
2019-03-05T23:31:50.733Z,3.80
2019-03-05T23:34:20.475Z,5.70
2019-03-05T23:36:50.157Z,4.87
2019-03-05T23:39:20.169Z,3.73
2019-03-05T23:41:49.750Z,5.70
2019-03-05T23:44:19.405Z,3.67
2019-03-05T23:46:49.025Z,4.50
2019-03-05T23:49:18.578Z,4.80
2019-03-05T23:51:48.151Z,5.97
2019-03-05T23:54:17.865Z,5.90
2019-03-05T23:56:47.552Z,5.40
2019-03-05T23:59:17.145Z,5.67
